createdAt,value
2016-03-04T00:00:32.650Z,0
2016-03-04T00:01:32.622Z,0
2016-03-04T00:02:32.594Z,0
2016-03-04T00:03:32.581Z,0
2016-03-04T00:04:32.552Z,0
2016-03-04T00:05:32.554Z,0
2016-03-04T00:06:32.541Z,0
2016-03-04T00:07:32.513Z,0
2016-03-04T00:08:32.485Z,0
2016-03-04T00:09:32.488Z,0
2016-03-04T00:10:32.460Z,0
2016-03-04T00:11:32.430Z,0
2016-03-04T00:12:32.308Z,0
2016-03-04T00:13:32.420Z,0
2016-03-04T00:14:32.392Z,0
2016-03-04T00:15:32.191Z,0
2016-03-04T00:16:32.381Z,0
2016-03-04T00:17:32.337Z,0
2016-03-04T00:18:32.293Z,0
2016-03-04T00:19:32.280Z,0
2016-03-04T00:20:32.267Z,0
2016-03-04T00:21:32.223Z,0
2016-03-04T00:22:32.241Z,0
2016-03-04T00:23:32.197Z,0
2016-03-04T00:24:32.169Z,0
2016-03-04T00:25:32.156Z,0
2016-03-04T00:26:32.143Z,0
2016-03-04T00:27:32.144Z,0
2016-03-04T00:28:32.117Z,0
2016-03-04T00:29:32.103Z,0
2016-03-04T00:30:32.091Z,0
2016-03-04T00:31:32.082Z,0
2016-03-04T00:32:32.027Z,0
2016-03-04T00:33:32.046Z,0
2016-03-04T00:34:32.002Z,0
2016-03-04T00:35:32.021Z,0
2016-03-04T00:36:31.960Z,0
2016-03-04T00:37:31.790Z,0
2016-03-04T00:38:31.918Z,0
2016-03-04T00:39:31.907Z,0
2016-03-04T00:40:31.893Z,0
2016-03-04T00:41:31.865Z,0
2016-03-04T00:42:31.883Z,0
2016-03-04T00:43:31.823Z,0
2016-03-04T00:44:31.809Z,0
2016-03-04T00:45:31.781Z,0
2016-03-04T00:46:31.769Z,0
2016-03-04T00:47:31.600Z,0
2016-03-04T00:48:31.728Z,0
2016-03-04T00:49:31.714Z,0
2016-03-04T00:50:31.701Z,0
2016-03-04T00:51:31.672Z,0
2016-03-04T00:52:31.661Z,0
2016-03-04T00:53:31.631Z,0
2016-03-04T00:54:31.619Z,0
2016-03-04T00:55:31.590Z,0
2016-03-04T00:56:31.593Z,0
2016-03-04T00:57:31.408Z,0
2016-03-04T00:58:31.536Z,0
2016-03-04T00:59:31.523Z,0
2016-03-04T01:00:31.495Z,0
2016-03-04T01:01:31.481Z,0
2016-03-04T01:02:31.453Z,0
2016-03-04T01:03:31.441Z,0
2016-03-04T01:04:31.443Z,0
2016-03-04T01:05:31.431Z,0
2016-03-04T01:06:31.386Z,0
2016-03-04T01:07:31.373Z,0
2016-03-04T01:08:31.360Z,0
2016-03-04T01:09:31.347Z,0
2016-03-04T01:10:31.319Z,0
2016-03-04T01:11:31.306Z,0
2016-03-04T01:12:31.277Z,0
2016-03-04T01:13:31.249Z,0
2016-03-04T01:14:31.236Z,0
2016-03-04T01:15:31.207Z,0
2016-03-04T01:16:31.210Z,0
2016-03-04T01:17:31.197Z,0
2016-03-04T01:18:31.152Z,0
2016-03-04T01:19:31.139Z,0
2016-03-04T01:20:31.127Z,0
2016-03-04T01:21:31.114Z,0
2016-03-04T01:22:31.085Z,0
2016-03-04T01:23:31.072Z,0
2016-03-04T01:24:31.059Z,0
2016-03-04T01:25:31.046Z,0
2016-03-04T01:26:31.034Z,0
2016-03-04T01:27:30.989Z,0
2016-03-04T01:28:30.961Z,0
2016-03-04T01:29:30.948Z,0
2016-03-04T01:30:30.934Z,0
2016-03-04T01:31:30.906Z,0
2016-03-04T01:32:30.925Z,0
2016-03-04T01:33:30.881Z,0
2016-03-04T01:34:30.852Z,0
2016-03-04T01:35:30.839Z,0
2016-03-04T01:36:30.825Z,0
2016-03-04T01:37:30.797Z,0
2016-03-04T01:38:30.768Z,0
2016-03-04T01:39:30.756Z,0
2016-03-04T01:40:30.743Z,0
2016-03-04T01:41:30.761Z,0
2016-03-04T01:42:30.716Z,0
2016-03-04T01:43:30.688Z,0
2016-03-04T01:44:30.660Z,0
2016-03-04T01:45:30.663Z,0
2016-03-04T01:46:30.635Z,0
2016-03-04T01:47:30.605Z,0
2016-03-04T01:48:30.593Z,0
2016-03-04T01:49:30.580Z,0
2016-03-04T01:50:30.567Z,0
2016-03-04T01:51:30.537Z,0
2016-03-04T01:52:30.510Z,0
2016-03-04T01:53:30.497Z,0
2016-03-04T01:54:30.484Z,0
2016-03-04T01:55:30.455Z,0
2016-03-04T01:56:30.442Z,0
2016-03-04T01:57:30.429Z,0
2016-03-04T01:58:30.400Z,0
2016-03-04T01:59:30.372Z,0
2016-03-04T02:00:30.359Z,0
2016-03-04T02:01:30.362Z,0
2016-03-04T02:02:30.317Z,0
2016-03-04T02:03:30.306Z,0
2016-03-04T02:04:30.276Z,0
2016-03-04T02:05:30.123Z,0
2016-03-04T02:06:30.250Z,0
2016-03-04T02:07:30.221Z,0
2016-03-04T02:08:30.208Z,0
2016-03-04T02:09:30.180Z,0
2016-03-04T02:10:30.166Z,0
2016-03-04T02:11:30.169Z,0
2016-03-04T02:12:30.126Z,0
2016-03-04T02:13:30.096Z,0
2016-03-04T02:14:30.099Z,0
2016-03-04T02:15:30.071Z,0
2016-03-04T02:16:30.058Z,0
2016-03-04T02:17:30.014Z,0
2016-03-04T02:18:30.017Z,0
2016-03-04T02:19:29.988Z,0
2016-03-04T02:20:29.975Z,0
2016-03-04T02:21:29.978Z,0
2016-03-04T02:22:29.933Z,0
2016-03-04T02:23:29.920Z,0
2016-03-04T02:24:29.892Z,0
2016-03-04T02:25:29.879Z,0
2016-03-04T02:26:29.881Z,0
2016-03-04T02:27:29.874Z,0
2016-03-04T02:28:29.829Z,0
2016-03-04T02:29:29.816Z,0
2016-03-04T02:30:29.772Z,0
2016-03-04T02:31:29.775Z,0
2016-03-04T02:32:29.746Z,0
2016-03-04T02:33:29.718Z,0
2016-03-04T02:34:29.721Z,0
2016-03-04T02:35:29.692Z,0
2016-03-04T02:36:29.694Z,0
2016-03-04T02:37:29.651Z,0
2016-03-04T02:38:29.653Z,0
2016-03-04T02:39:29.624Z,0
2016-03-04T02:40:29.612Z,0
2016-03-04T02:41:29.567Z,0
2016-03-04T02:42:29.554Z,0
2016-03-04T02:43:29.542Z,0
2016-03-04T02:44:29.512Z,0
2016-03-04T02:45:29.500Z,0
2016-03-04T02:46:29.471Z,0
2016-03-04T02:47:29.458Z,0
2016-03-04T02:48:29.445Z,0
2016-03-04T02:49:29.433Z,0
2016-03-04T02:50:29.420Z,0
2016-03-04T02:51:29.375Z,0
2016-03-04T02:52:29.362Z,0
2016-03-04T02:53:29.349Z,0
2016-03-04T02:54:29.352Z,0
2016-03-04T02:55:29.308Z,0
2016-03-04T02:56:29.295Z,0
2016-03-04T02:57:29.267Z,0
2016-03-04T02:58:29.269Z,0
2016-03-04T02:59:29.225Z,0
2016-03-04T03:00:29.213Z,0
2016-03-04T03:01:29.200Z,0
2016-03-04T03:02:29.186Z,0
2016-03-04T03:03:29.158Z,0
2016-03-04T03:04:29.113Z,0
2016-03-04T03:05:28.960Z,0
2016-03-04T03:06:29.103Z,0
2016-03-04T03:07:29.090Z,0
2016-03-04T03:08:29.062Z,0
2016-03-04T03:09:29.033Z,0
2016-03-04T03:10:29.021Z,0
2016-03-04T03:11:29.007Z,0
2016-03-04T03:12:28.978Z,0
2016-03-04T03:13:28.965Z,0
2016-03-04T03:14:28.938Z,0
2016-03-04T03:15:28.924Z,0
2016-03-04T03:16:28.911Z,0
2016-03-04T03:17:28.883Z,0
2016-03-04T03:18:28.886Z,0
2016-03-04T03:19:28.841Z,0
2016-03-04T03:20:28.828Z,0
2016-03-04T03:21:28.800Z,0
2016-03-04T03:22:28.803Z,0
2016-03-04T03:23:28.774Z,0
2016-03-04T03:24:28.761Z,0
2016-03-04T03:25:28.575Z,0
2016-03-04T03:26:28.703Z,0
2016-03-04T03:27:28.707Z,0
2016-03-04T03:28:28.678Z,0
2016-03-04T03:29:28.744Z,0
2016-03-04T03:30:28.636Z,0
2016-03-04T03:31:28.639Z,0
2016-03-04T03:32:28.594Z,0
2016-03-04T03:33:28.566Z,0
2016-03-04T03:34:28.554Z,0
2016-03-04T03:35:28.541Z,0
2016-03-04T03:36:28.527Z,0
2016-03-04T03:37:28.499Z,0
2016-03-04T03:38:28.501Z,0
2016-03-04T03:39:28.457Z,0
2016-03-04T03:40:28.461Z,0
2016-03-04T03:41:28.416Z,0
2016-03-04T03:42:28.419Z,0
2016-03-04T03:43:28.374Z,0
2016-03-04T03:44:28.393Z,0
2016-03-04T03:45:28.364Z,0
2016-03-04T03:46:28.320Z,0
2016-03-04T03:47:28.323Z,0
2016-03-04T03:48:28.279Z,0
2016-03-04T03:49:28.282Z,0
2016-03-04T03:50:28.237Z,0
2016-03-04T03:51:28.270Z,0
2016-03-04T03:52:28.211Z,0
2016-03-04T03:53:28.199Z,0
2016-03-04T03:54:28.169Z,0
2016-03-04T03:55:28.141Z,0
2016-03-04T03:56:28.144Z,0
2016-03-04T03:57:28.116Z,0
2016-03-04T03:58:28.102Z,0
2016-03-04T03:59:28.074Z,0
2016-03-04T04:00:28.061Z,0
2016-03-04T04:01:28.110Z,0
2016-03-04T04:02:28.019Z,0
2016-03-04T04:03:28.007Z,0
2016-03-04T04:04:27.977Z,0
2016-03-04T04:05:27.949Z,0
2016-03-04T04:06:27.936Z,0
2016-03-04T04:07:27.924Z,0
2016-03-04T04:08:27.908Z,0
2016-03-04T04:09:27.880Z,0
2016-03-04T04:10:27.866Z,0
2016-03-04T04:11:27.838Z,0
2016-03-04T04:12:27.824Z,0
2016-03-04T04:13:27.796Z,0
2016-03-04T04:14:27.767Z,0
2016-03-04T04:15:27.755Z,0
2016-03-04T04:16:27.774Z,0
2016-03-04T04:17:27.713Z,0
2016-03-04T04:18:27.701Z,0
2016-03-04T04:19:27.703Z,0
2016-03-04T04:20:27.706Z,0
2016-03-04T04:21:27.645Z,0
2016-03-04T04:22:27.634Z,0
2016-03-04T04:23:27.620Z,0
2016-03-04T04:24:27.592Z,0
2016-03-04T04:25:27.594Z,0
2016-03-04T04:26:27.394Z,0
2016-03-04T04:27:27.536Z,0
2016-03-04T04:28:27.509Z,0
2016-03-04T04:29:27.512Z,0
2016-03-04T04:30:27.483Z,0
2016-03-04T04:31:27.469Z,0
2016-03-04T04:32:27.441Z,0
2016-03-04T04:33:27.413Z,0
2016-03-04T04:34:27.399Z,0
2016-03-04T04:35:27.371Z,0
2016-03-04T04:36:27.374Z,0
2016-03-04T04:37:27.361Z,0
2016-03-04T04:38:27.316Z,0
2016-03-04T04:39:27.304Z,0
2016-03-04T04:40:27.274Z,0
2016-03-04T04:41:27.277Z,0
2016-03-04T04:42:27.265Z,0
2016-03-04T04:43:27.220Z,0
2016-03-04T04:44:27.193Z,0
2016-03-04T04:45:27.179Z,0
2016-03-04T04:46:27.166Z,0
2016-03-04T04:47:27.137Z,0
2016-03-04T04:48:27.126Z,0
2016-03-04T04:49:27.112Z,0
2016-03-04T04:50:27.084Z,0
2016-03-04T04:51:27.086Z,0
2016-03-04T04:52:27.042Z,0
2016-03-04T04:53:27.060Z,0
2016-03-04T04:54:27.088Z,0
2016-03-04T04:55:27.001Z,0
2016-03-04T04:56:34.742Z,0
2016-03-04T04:57:27.180Z,0
2016-03-04T04:58:26.932Z,0
2016-03-04T04:59:26.919Z,0
2016-03-04T05:00:26.906Z,0
2016-03-04T05:01:26.893Z,0
2016-03-04T05:02:26.864Z,0
2016-03-04T05:03:26.836Z,0
2016-03-04T05:04:26.808Z,0
2016-03-04T05:05:26.810Z,0
2016-03-04T05:06:26.766Z,0
2016-03-04T05:07:26.800Z,0
2016-03-04T05:08:26.740Z,0
2016-03-04T05:09:26.712Z,0
2016-03-04T05:10:26.715Z,0
2016-03-04T05:11:26.686Z,0
2016-03-04T05:12:26.673Z,0
2016-03-04T05:13:26.644Z,0
2016-03-04T05:14:26.647Z,0
2016-03-04T05:15:26.618Z,0
2016-03-04T05:16:26.575Z,0
2016-03-04T05:17:26.625Z,0
2016-03-04T05:18:26.533Z,0
2016-03-04T05:19:26.520Z,0
2016-03-04T05:20:26.522Z,0
2016-03-04T05:21:26.478Z,0
2016-03-04T05:22:26.481Z,0
2016-03-04T05:23:26.437Z,0
2016-03-04T05:24:26.439Z,0
2016-03-04T05:25:26.411Z,0
2016-03-04T05:26:26.413Z,0
2016-03-04T05:27:26.354Z,0
2016-03-04T05:28:26.371Z,0
2016-03-04T05:29:26.328Z,0
2016-03-04T05:30:26.331Z,0
2016-03-04T05:31:26.287Z,0
2016-03-04T05:32:26.290Z,0
2016-03-04T05:33:26.245Z,0
2016-03-04T05:34:26.216Z,0
2016-03-04T05:35:26.219Z,0
2016-03-04T05:36:26.190Z,0
2016-03-04T05:37:26.178Z,0
2016-03-04T05:38:26.149Z,0
2016-03-04T05:39:26.151Z,0
2016-03-04T05:40:26.123Z,0
2016-03-04T05:41:26.109Z,0
2016-03-04T05:42:26.067Z,0
2016-03-04T05:43:26.054Z,0
2016-03-04T05:44:26.056Z,0
2016-03-04T05:45:26.012Z,0
2016-03-04T05:46:26.014Z,0
2016-03-04T05:47:25.970Z,0
2016-03-04T05:48:25.972Z,0
2016-03-04T05:49:25.944Z,0
2016-03-04T05:50:25.947Z,0
2016-03-04T05:51:25.887Z,0
2016-03-04T05:52:25.874Z,0
2016-03-04T05:53:25.861Z,0
2016-03-04T05:54:25.848Z,0
2016-03-04T05:55:25.852Z,0
2016-03-04T05:56:25.807Z,0
2016-03-04T05:57:25.794Z,0
2016-03-04T05:58:25.766Z,0
2016-03-04T05:59:25.737Z,0
2016-03-04T06:00:25.724Z,0
2016-03-04T06:01:25.710Z,0
2016-03-04T06:02:25.666Z,0
2016-03-04T06:03:25.529Z,0
2016-03-04T06:04:25.641Z,0
2016-03-04T06:05:25.660Z,0
2016-03-04T06:06:25.599Z,0
2016-03-04T06:07:25.587Z,0
2016-03-04T06:08:25.586Z,0
2016-03-04T06:09:25.530Z,0
2016-03-04T06:10:25.520Z,0
2016-03-04T06:11:25.463Z,0
2016-03-04T06:12:25.469Z,0
2016-03-04T06:13:25.413Z,0
2016-03-04T06:14:25.411Z,0
2016-03-04T06:15:25.393Z,0
2016-03-04T06:16:25.330Z,0
2016-03-04T06:17:25.328Z,0
2016-03-04T06:18:25.295Z,0
2016-03-04T06:19:25.281Z,0
2016-03-04T06:20:25.250Z,0
2016-03-04T06:21:25.080Z,0
2016-03-04T06:22:25.206Z,0
2016-03-04T06:23:25.191Z,0
2016-03-04T06:24:25.177Z,0
2016-03-04T06:25:25.148Z,0
2016-03-04T06:26:25.150Z,0
2016-03-04T06:27:25.090Z,0
2016-03-04T06:28:25.107Z,0
2016-03-04T06:29:25.063Z,0
2016-03-04T06:30:25.051Z,0
2016-03-04T06:31:25.022Z,0
2016-03-04T06:32:25.024Z,0
2016-03-04T06:33:24.981Z,0
2016-03-04T06:34:24.967Z,0
2016-03-04T06:35:24.954Z,0
2016-03-04T06:36:24.926Z,0
2016-03-04T06:37:24.929Z,0
2016-03-04T06:38:24.884Z,0
2016-03-04T06:39:24.872Z,0
2016-03-04T06:40:24.859Z,0
2016-03-04T06:41:24.861Z,0
2016-03-04T06:42:24.801Z,0
2016-03-04T06:43:24.804Z,0
2016-03-04T06:44:24.776Z,0
2016-03-04T06:45:24.763Z,0
2016-03-04T06:46:24.734Z,4
2016-03-04T06:47:24.721Z,4
2016-03-04T06:48:24.692Z,0
2016-03-04T06:49:24.726Z,0
2016-03-04T06:50:24.652Z,0
2016-03-04T06:51:24.623Z,0
2016-03-04T06:52:24.625Z,0
2016-03-04T06:53:24.597Z,4
2016-03-04T06:54:24.615Z,4
2016-03-04T06:55:24.555Z,4
2016-03-04T06:56:24.558Z,4
2016-03-04T06:57:24.545Z,4
2016-03-04T06:58:24.532Z,0
2016-03-04T06:59:24.488Z,0
2016-03-04T07:00:29.412Z,0
2016-03-04T07:01:29.446Z,0
2016-03-04T07:02:28.979Z,0
2016-03-04T07:03:28.999Z,4
2016-03-04T07:04:26.720Z,4
2016-03-04T07:05:29.567Z,4
2016-03-04T07:06:24.210Z,0
2016-03-04T07:07:24.323Z,0
2016-03-04T07:08:29.559Z,0
2016-03-04T07:09:29.342Z,4
2016-03-04T07:10:30.064Z,4
2016-03-04T07:11:29.770Z,4
2016-03-04T07:12:29.445Z,4
2016-03-04T07:13:29.339Z,4
2016-03-04T07:14:28.092Z,4
2016-03-04T07:15:29.484Z,4
2016-03-04T07:16:29.564Z,4
2016-03-04T07:17:29.677Z,4
2016-03-04T07:18:29.352Z,4
2016-03-04T07:19:29.666Z,4
2016-03-04T07:20:27.825Z,4
2016-03-04T07:21:28.094Z,4
2016-03-04T07:22:29.628Z,0
2016-03-04T07:23:29.458Z,0
2016-03-04T07:24:29.602Z,0
2016-03-04T07:25:24.011Z,0
2016-03-04T07:26:23.966Z,4
2016-03-04T07:27:23.954Z,4
2016-03-04T07:28:23.924Z,4
2016-03-04T07:29:23.896Z,4
2016-03-04T07:30:23.946Z,0
2016-03-04T07:31:23.854Z,0
2016-03-04T07:32:23.843Z,0
2016-03-04T07:33:23.829Z,0
2016-03-04T07:34:23.832Z,0
2016-03-04T07:35:23.773Z,0
2016-03-04T07:36:23.759Z,0
2016-03-04T07:37:23.746Z,0
2016-03-04T07:38:23.733Z,0
2016-03-04T07:39:23.721Z,0
2016-03-04T07:40:23.692Z,0
2016-03-04T07:41:23.507Z,0
2016-03-04T07:42:23.650Z,0
2016-03-04T07:43:23.637Z,0
2016-03-04T07:44:23.609Z,0
2016-03-04T07:45:23.674Z,0
2016-03-04T07:46:23.568Z,0
2016-03-04T07:47:23.555Z,0
2016-03-04T07:48:23.541Z,0
2016-03-04T07:49:23.528Z,0
2016-03-04T07:50:23.484Z,0
2016-03-04T07:51:23.471Z,0
2016-03-04T07:52:23.458Z,0
2016-03-04T07:53:23.445Z,0
2016-03-04T07:54:23.417Z,0
2016-03-04T07:55:23.388Z,0
2016-03-04T07:56:23.375Z,0
2016-03-04T07:57:23.363Z,0
2016-03-04T07:58:23.349Z,4
2016-03-04T07:59:23.337Z,4
2016-03-04T08:00:23.308Z,4
2016-03-04T08:01:23.280Z,4
2016-03-04T08:02:23.282Z,4
2016-03-04T08:03:23.237Z,4
2016-03-04T08:04:23.226Z,4
2016-03-04T08:05:23.243Z,4
2016-03-04T08:06:23.184Z,4
2016-03-04T08:07:23.187Z,4
2016-03-04T08:08:23.142Z,4
2016-03-04T08:09:23.145Z,4
2016-03-04T08:10:23.100Z,4
2016-03-04T08:11:23.104Z,4
2016-03-04T08:12:23.090Z,4
2016-03-04T08:13:23.061Z,0
2016-03-04T08:14:23.033Z,0
2016-03-04T08:15:23.051Z,0
2016-03-04T08:16:23.008Z,0
2016-03-04T08:17:22.964Z,0
2016-03-04T08:18:22.951Z,0
2016-03-04T08:19:22.937Z,0
2016-03-04T08:20:22.908Z,0
2016-03-04T08:21:22.911Z,0
2016-03-04T08:22:22.867Z,0
2016-03-04T08:23:22.855Z,0
2016-03-04T08:24:22.841Z,0
2016-03-04T08:25:22.828Z,0
2016-03-04T08:26:22.799Z,4
2016-03-04T08:27:22.771Z,20
2016-03-04T08:28:22.774Z,20
2016-03-04T08:29:22.730Z,20
2016-03-04T08:30:22.701Z,20
2016-03-04T08:31:22.688Z,24
2016-03-04T08:32:22.676Z,24
2016-03-04T08:33:22.662Z,24
2016-03-04T08:34:22.634Z,24
2016-03-04T08:35:22.621Z,24
2016-03-04T08:36:22.732Z,20
2016-03-04T08:37:22.814Z,16
2016-03-04T08:38:22.660Z,16
2016-03-04T08:39:22.570Z,24
2016-03-04T08:40:22.540Z,20
2016-03-04T08:41:22.512Z,20
2016-03-04T08:42:22.499Z,24
2016-03-04T08:43:22.455Z,24
2016-03-04T08:44:22.489Z,24
2016-03-04T08:45:22.429Z,20
2016-03-04T08:46:22.400Z,24
2016-03-04T08:47:22.387Z,28
2016-03-04T08:48:22.344Z,24
2016-03-04T08:49:22.378Z,20
2016-03-04T08:50:22.317Z,20
2016-03-04T08:51:22.352Z,32
2016-03-04T08:52:22.292Z,28
2016-03-04T08:53:22.263Z,32
2016-03-04T08:54:22.280Z,24
2016-03-04T08:55:22.222Z,28
2016-03-04T08:56:22.224Z,28
2016-03-04T08:57:22.180Z,28
2016-03-04T08:58:22.199Z,32
2016-03-04T08:59:22.232Z,40
2016-03-04T09:00:22.141Z,36
2016-03-04T09:01:22.113Z,40
2016-03-04T09:02:22.115Z,32
2016-03-04T09:03:22.087Z,32
2016-03-04T09:04:22.057Z,32
2016-03-04T09:05:22.093Z,36
2016-03-04T09:06:22.017Z,36
2016-03-04T09:07:22.005Z,36
2016-03-04T09:08:22.008Z,36
2016-03-04T09:09:21.947Z,36
2016-03-04T09:10:21.935Z,44
2016-03-04T09:11:21.922Z,44
2016-03-04T09:12:21.893Z,44
2016-03-04T09:13:21.912Z,44
2016-03-04T09:14:21.852Z,44
2016-03-04T09:15:21.855Z,44
2016-03-04T09:16:21.826Z,40
2016-03-04T09:17:21.813Z,36
2016-03-04T09:18:21.799Z,32
2016-03-04T09:19:21.771Z,36
2016-03-04T09:20:21.773Z,32
2016-03-04T09:21:21.746Z,32
2016-03-04T09:22:21.717Z,36
2016-03-04T09:23:21.704Z,36
2016-03-04T09:24:21.676Z,36
2016-03-04T09:25:21.678Z,36
2016-03-04T09:26:21.634Z,36
2016-03-04T09:27:21.637Z,40
2016-03-04T09:28:21.608Z,44
2016-03-04T09:29:21.579Z,40
2016-03-04T09:30:21.551Z,36
2016-03-04T09:31:21.538Z,36
2016-03-04T09:32:21.510Z,40
2016-03-04T09:33:21.512Z,44
2016-03-04T09:34:21.483Z,40
2016-03-04T09:35:21.470Z,32
2016-03-04T09:36:21.442Z,32
2016-03-04T09:37:21.461Z,32
2016-03-04T09:38:21.400Z,28
2016-03-04T09:39:21.388Z,36
2016-03-04T09:40:21.375Z,28
2016-03-04T09:41:21.347Z,28
2016-03-04T09:42:21.349Z,20
2016-03-04T09:43:21.321Z,24
2016-03-04T09:44:21.291Z,20
2016-03-04T09:45:21.279Z,20
2016-03-04T09:46:21.250Z,20
2016-03-04T09:47:21.237Z,20
2016-03-04T09:48:21.240Z,20
2016-03-04T09:49:21.212Z,20
2016-03-04T09:50:21.215Z,16
2016-03-04T09:51:21.171Z,20
2016-03-04T09:52:21.141Z,20
2016-03-04T09:53:21.128Z,20
2016-03-04T09:54:21.101Z,24
2016-03-04T09:55:21.071Z,24
2016-03-04T09:56:21.073Z,24
2016-03-04T09:57:21.030Z,24
2016-03-04T09:58:21.048Z,24
2016-03-04T09:59:21.035Z,20
2016-03-04T10:00:21.023Z,20
2016-03-04T10:01:20.978Z,20
2016-03-04T10:02:20.981Z,20
2016-03-04T10:03:20.953Z,16
2016-03-04T10:04:20.923Z,16
2016-03-04T10:05:20.910Z,20
2016-03-04T10:06:20.883Z,24
2016-03-04T10:07:20.853Z,24
2016-03-04T10:08:20.841Z,28
2016-03-04T10:09:20.828Z,28
2016-03-04T10:10:20.799Z,28
2016-03-04T10:11:20.786Z,28
2016-03-04T10:12:20.789Z,32
2016-03-04T10:13:20.744Z,32
2016-03-04T10:14:20.732Z,32
2016-03-04T10:15:20.750Z,32
2016-03-04T10:16:20.705Z,32
2016-03-04T10:17:20.663Z,32
2016-03-04T10:18:20.649Z,32
2016-03-04T10:19:20.635Z,32
2016-03-04T10:20:20.624Z,28
2016-03-04T10:21:20.626Z,28
2016-03-04T10:22:20.565Z,28
2016-03-04T10:23:20.569Z,32
2016-03-04T10:24:20.556Z,28
2016-03-04T10:25:20.527Z,28
2016-03-04T10:26:20.514Z,32
2016-03-04T10:27:20.485Z,28
2016-03-04T10:28:20.473Z,32
2016-03-04T10:29:20.475Z,32
2016-03-04T10:30:20.431Z,28
2016-03-04T10:31:20.417Z,32
2016-03-04T10:32:20.406Z,28
2016-03-04T10:33:20.376Z,32
2016-03-04T10:34:20.364Z,32
2016-03-04T10:35:20.351Z,32
2016-03-04T10:36:20.306Z,36
2016-03-04T10:37:20.294Z,40
2016-03-04T10:38:20.297Z,28
2016-03-04T10:39:20.330Z,36
2016-03-04T10:40:20.270Z,36
2016-03-04T10:41:20.227Z,36
2016-03-04T10:42:20.229Z,36
2016-03-04T10:43:20.185Z,44
2016-03-04T10:44:20.171Z,40
2016-03-04T10:45:20.144Z,40
2016-03-04T10:46:20.130Z,36
2016-03-04T10:47:20.101Z,32
2016-03-04T10:48:20.105Z,32
2016-03-04T10:49:20.091Z,32
2016-03-04T10:50:20.063Z,32
2016-03-04T10:51:20.035Z,32
2016-03-04T10:52:20.022Z,28
2016-03-04T10:53:19.993Z,32
2016-03-04T10:54:19.996Z,28
2016-03-04T10:55:19.951Z,28
2016-03-04T10:56:19.938Z,28
2016-03-04T10:57:19.926Z,28
2016-03-04T10:58:19.898Z,28
2016-03-04T10:59:19.915Z,28
2016-03-04T11:00:19.886Z,28
2016-03-04T11:01:19.859Z,24
2016-03-04T11:02:19.829Z,24
2016-03-04T11:03:19.816Z,24
2016-03-04T11:04:19.820Z,24
2016-03-04T11:05:19.776Z,24
2016-03-04T11:06:19.747Z,24
2016-03-04T11:07:19.749Z,24
2016-03-04T11:08:19.721Z,24
2016-03-04T11:09:19.723Z,24
2016-03-04T11:10:19.694Z,24
2016-03-04T11:11:19.683Z,24
2016-03-04T11:12:19.669Z,24
2016-03-04T11:13:19.641Z,24
2016-03-04T11:14:19.612Z,24
2016-03-04T11:15:19.599Z,24
2016-03-04T11:16:19.617Z,20
2016-03-04T11:17:19.557Z,20
2016-03-04T11:18:19.529Z,20
2016-03-04T11:19:19.532Z,20
2016-03-04T11:20:19.502Z,24
2016-03-04T11:21:19.506Z,24
2016-03-04T11:22:19.477Z,24
2016-03-04T11:23:19.432Z,20
2016-03-04T11:24:19.421Z,24
2016-03-04T11:25:19.391Z,24
2016-03-04T11:26:19.410Z,20
2016-03-04T11:27:19.396Z,24
2016-03-04T11:28:19.354Z,24
2016-03-04T11:29:19.340Z,24
2016-03-04T11:30:19.311Z,24
2016-03-04T11:31:19.298Z,24
2016-03-04T11:32:19.301Z,24
2016-03-04T11:33:19.256Z,24
2016-03-04T11:34:19.275Z,24
2016-03-04T11:35:19.247Z,24
2016-03-04T11:36:19.203Z,24
2016-03-04T11:37:19.189Z,24
2016-03-04T11:38:19.161Z,24
2016-03-04T11:39:19.148Z,24
2016-03-04T11:40:19.135Z,24
2016-03-04T11:41:19.122Z,24
2016-03-04T11:42:19.094Z,24
2016-03-04T11:43:19.065Z,24
2016-03-04T11:44:19.067Z,20
2016-03-04T11:45:19.038Z,24
2016-03-04T11:46:19.058Z,20
2016-03-04T11:47:18.997Z,20
2016-03-04T11:48:18.969Z,24
2016-03-04T11:49:18.956Z,20
2016-03-04T11:50:18.944Z,24
2016-03-04T11:51:18.930Z,24
2016-03-04T11:52:18.917Z,24
2016-03-04T11:53:18.921Z,24
2016-03-04T11:54:18.704Z,20
2016-03-04T11:55:18.846Z,24
2016-03-04T11:56:18.834Z,24
2016-03-04T11:57:18.821Z,20
2016-03-04T11:58:18.652Z,20
2016-03-04T11:59:18.764Z,20
2016-03-04T12:00:18.767Z,20
2016-03-04T12:01:18.785Z,20
2016-03-04T12:02:18.725Z,20
2016-03-04T12:03:18.697Z,20
2016-03-04T12:04:18.684Z,16
2016-03-04T12:05:18.656Z,16
2016-03-04T12:06:18.673Z,20
2016-03-04T12:07:18.645Z,20
2016-03-04T12:08:18.631Z,16
2016-03-04T12:09:18.588Z,16
2016-03-04T12:10:18.575Z,20
2016-03-04T12:11:18.562Z,20
2016-03-04T12:12:18.517Z,16
2016-03-04T12:13:18.520Z,16
2016-03-04T12:14:18.492Z,16
2016-03-04T12:15:18.479Z,16
2016-03-04T12:16:18.357Z,16
2016-03-04T12:17:18.469Z,16
2016-03-04T12:18:18.425Z,20
2016-03-04T12:19:18.411Z,16
2016-03-04T12:20:18.383Z,20
2016-03-04T12:21:18.402Z,16
2016-03-04T12:22:18.341Z,16
2016-03-04T12:23:18.329Z,16
2016-03-04T12:24:18.315Z,16
2016-03-04T12:25:18.303Z,16
2016-03-04T12:26:18.290Z,16
2016-03-04T12:27:18.261Z,16
2016-03-04T12:28:18.265Z,20
2016-03-04T12:29:18.220Z,20
2016-03-04T12:30:18.238Z,16
2016-03-04T12:31:18.068Z,16
2016-03-04T12:32:18.182Z,16
2016-03-04T12:33:18.153Z,16
2016-03-04T12:34:18.123Z,16
2016-03-04T12:35:18.112Z,16
2016-03-04T12:36:18.097Z,16
2016-03-04T12:37:18.101Z,16
2016-03-04T12:38:18.056Z,16
2016-03-04T12:39:18.028Z,16
2016-03-04T12:40:18.015Z,16
2016-03-04T12:41:18.017Z,16
2016-03-04T12:42:18.005Z,20
2016-03-04T12:43:17.975Z,16
2016-03-04T12:44:17.933Z,16
2016-03-04T12:45:17.778Z,20
2016-03-04T12:46:17.938Z,16
2016-03-04T12:47:17.877Z,16
2016-03-04T12:48:17.864Z,16
2016-03-04T12:49:17.836Z,16
2016-03-04T12:50:17.823Z,12
2016-03-04T12:51:17.826Z,12
2016-03-04T12:52:17.797Z,12
2016-03-04T12:53:17.769Z,16
2016-03-04T12:54:17.755Z,16
2016-03-04T12:55:17.758Z,16
2016-03-04T12:56:17.730Z,16
2016-03-04T12:57:17.701Z,16
2016-03-04T12:58:17.673Z,16
2016-03-04T12:59:17.676Z,12
2016-03-04T13:00:17.663Z,16
2016-03-04T13:01:17.634Z,12
2016-03-04T13:02:17.606Z,12
2016-03-04T13:03:17.592Z,12
2016-03-04T13:04:17.595Z,12
2016-03-04T13:05:17.551Z,12
2016-03-04T13:06:17.538Z,12
2016-03-04T13:07:17.509Z,12
2016-03-04T13:08:17.497Z,12
2016-03-04T13:09:17.312Z,8
2016-03-04T13:10:17.470Z,8
2016-03-04T13:11:17.442Z,8
2016-03-04T13:12:17.445Z,8
2016-03-04T13:13:17.432Z,12
2016-03-04T13:14:17.388Z,12
2016-03-04T13:15:17.374Z,12
2016-03-04T13:16:17.361Z,8
2016-03-04T13:17:17.333Z,12
2016-03-04T13:18:17.320Z,8
2016-03-04T13:19:17.291Z,8
2016-03-04T13:20:17.295Z,8
2016-03-04T13:21:17.250Z,8
2016-03-04T13:22:17.222Z,8
2016-03-04T13:23:17.208Z,12
2016-03-04T13:24:17.086Z,8
2016-03-04T13:25:17.199Z,8
2016-03-04T13:26:17.155Z,8
2016-03-04T13:27:17.141Z,8
2016-03-04T13:28:17.128Z,8
2016-03-04T13:29:17.116Z,8
2016-03-04T13:30:17.087Z,8
2016-03-04T13:31:17.073Z,8
2016-03-04T13:32:17.045Z,8
2016-03-04T13:33:17.033Z,8
2016-03-04T13:34:17.051Z,8
2016-03-04T13:35:17.006Z,8
2016-03-04T13:36:16.994Z,8
2016-03-04T13:37:16.965Z,12
2016-03-04T13:38:16.953Z,8
2016-03-04T13:39:16.908Z,8
2016-03-04T13:40:16.973Z,16
2016-03-04T13:41:16.882Z,16
2016-03-04T13:42:16.869Z,16
2016-03-04T13:43:16.903Z,20
2016-03-04T13:44:16.811Z,16
2016-03-04T13:45:16.831Z,16
2016-03-04T13:46:17.239Z,16
2016-03-04T13:47:16.805Z,16
2016-03-04T13:48:16.744Z,16
2016-03-04T13:49:16.764Z,16
2016-03-04T13:50:16.719Z,16
2016-03-04T13:51:16.737Z,16
2016-03-04T13:52:16.865Z,16
2016-03-04T13:53:16.664Z,16
2016-03-04T13:54:17.214Z,16
2016-03-04T13:55:16.654Z,16
2016-03-04T13:56:16.610Z,16
2016-03-04T13:57:16.613Z,16
2016-03-04T13:58:16.569Z,16
2016-03-04T13:59:16.571Z,16
2016-03-04T14:00:16.527Z,16
2016-03-04T14:01:16.530Z,16
2016-03-04T14:02:16.501Z,16
2016-03-04T14:03:16.488Z,16
2016-03-04T14:04:16.459Z,12
2016-03-04T14:05:16.478Z,16
2016-03-04T14:06:16.418Z,16
2016-03-04T14:07:16.406Z,16
2016-03-04T14:08:16.376Z,16
2016-03-04T14:09:16.348Z,16
2016-03-04T14:10:16.351Z,16
2016-03-04T14:11:16.322Z,16
2016-03-04T14:12:16.309Z,16
2016-03-04T14:13:16.281Z,16
2016-03-04T14:14:16.267Z,16
2016-03-04T14:15:16.395Z,16
2016-03-04T14:16:16.258Z,20
2016-03-04T14:17:16.197Z,20
2016-03-04T14:18:16.200Z,20
2016-03-04T14:19:16.172Z,16
2016-03-04T14:20:16.159Z,16
2016-03-04T14:21:16.130Z,16
2016-03-04T14:22:16.133Z,20
2016-03-04T14:23:16.104Z,20
2016-03-04T14:24:16.107Z,16
2016-03-04T14:25:16.064Z,16
2016-03-04T14:26:16.050Z,20
2016-03-04T14:27:16.178Z,16
2016-03-04T14:28:16.008Z,20
2016-03-04T14:29:15.996Z,20
2016-03-04T14:30:15.967Z,20
2016-03-04T14:31:15.938Z,16
2016-03-04T14:32:15.926Z,20
2016-03-04T14:33:15.896Z,20
2016-03-04T14:34:15.915Z,20